• Join FlightAware (Why Join?)
  • Login
  • US Flag 
07:45PM EDT


 

Airport Tracker/Info


-or-


 

Live Flight TrackerFlight Track Log ✈ PHM28A ✈ 24-Oct-2013 ✈ KHUM

Flight Track Log - Related Links

Times and Time Zones

All times are in EDT time to prevent confusion due to time zone crossing. See the PHM28A flight status page for this flight to view local times or setup timezone preferences in your user account.

Time Position Orientation Groundspeed Altitude Reporting Facility
EDT Latitude Longitude Course Direction KTS MPH feet Rate Location/Type
10:13AM 27.4450 -90.1550 330° Northwest 116 133 3,900  Level Houston Center
10:15AM 27.4783 -90.1583 355° North 128 147 4,000  Climbing Houston Center
10:16AM 27.5167 -90.1631 354° North 144 166 4,000  Level Houston Center
10:17AM 27.5653 -90.1675 355° North 145 167 4,100  Climbing Houston Center
10:18AM 27.4777 -90.1914 326° Northwest  Level FlightAware Approximate
10:18AM 27.6058 -90.1711 355° North 145 167 4,100  Level Houston Center
10:19AM 27.6461 -90.1750 355° North 147 169 4,000  Descending Houston Center
10:20AM 27.6869 -90.1794 354° North 149 171 4,100  Climbing Houston Center
10:21AM 27.7297 -90.1908 347° North 153 176 4,000 -60 Descending Houston Center
10:22AM 27.7703 -90.2011 347° North 154 177 4,000  Level Houston Center
10:23AM 27.8206 -90.2139 347° North 153 176 4,100  Climbing Houston Center
10:24AM 27.8617 -90.2242 348° North 152 175 4,100  Level Houston Center
10:25AM 27.9044 -90.2350 347° North 154 177 4,100 -60 Level Houston Center
10:26AM 27.9456 -90.2453 348° North 154 177 4,000 -60 Descending Houston Center
10:27AM 27.9872 -90.2558 347° North 154 177 4,000  Level Houston Center
10:28AM 28.0292 -90.2664 347° North 154 177 4,000  Level Houston Center
10:29AM 28.0797 -90.2792 347° North 154 177 4,000  Level Houston Center
10:30AM 28.1222 -90.2900 347° North 153 176 4,000  Level Houston Center
10:31AM 28.1633 -90.3006 347° North 153 176 4,000  Level Houston Center
10:32AM 28.2044 -90.3108 348° North 154 177 4,100  Climbing Houston Center
10:33AM 28.2464 -90.3214 348° North 154 177 4,100  Level Houston Center
10:34AM 28.2975 -90.3344 347° North 158 182 4,100 -60 Level Houston Center
10:35AM 28.3406 -90.3453 348° North 158 182 4,000  Descending Houston Center
10:36AM 28.3836 -90.3564 347° North 156 180 4,100  Climbing Houston Center
10:37AM 28.4253 -90.3669 347° North 155 178 4,000  Descending Houston Center
10:38AM 28.4681 -90.3778 347° North 155 178 4,100  Climbing Houston Center
10:39AM 28.5108 -90.3886 347° North 155 178 4,000 -60 Descending Houston Center
10:40AM 28.5606 -90.4014 347° North 157 181 4,000  Level Houston Center
10:41AM 28.6033 -90.4122 347° North 156 180 4,100  Climbing Houston Center
10:42AM 28.6458 -90.4231 347° North 155 178 4,000  Descending Houston Center
10:43AM 28.6886 -90.4342 347° North 155 178 4,100  Climbing Houston Center
10:45AM 28.7297 -90.4447 347° North 154 177 4,100  Level Houston Center
10:46AM 28.7725 -90.4556 347° North 152 175 4,100 -60 Level Houston Center
10:47AM 28.8208 -90.4681 347° North 148 170 4,000 -60 Descending Houston Center
10:48AM 28.8608 -90.4781 348° North 149 171 4,000  Level Houston Center
10:49AM 28.9022 -90.4889 347° North 153 176 4,000  Level Houston Center
10:50AM 28.9439 -90.4997 347° North 152 175 4,100  Climbing Houston Center
10:51AM 28.9844 -90.5100 348° North 150 173 4,000  Descending Houston Center
10:52AM 29.0256 -90.5206 347° North 150 173 4,100  Climbing Houston Center
10:53AM 29.0775 -90.5347 347° North 152 175 4,000 -60 Descending Houston Center
10:54AM 29.1069 -90.5431 346° North 150 173 4,000  Level Houston Center
10:54AM 29.1150 -90.5436 357° North 149 171 4,000  Level Houston Center
10:55AM 29.1553 -90.5542 347° North 150 173 4,000  Level Houston Center
10:56AM 29.1953 -90.5661 345° North 152 175 4,000  Level Houston Center
10:56AM 29.1967 -90.5647 41° Northeast 152 175 4,000 -300 Level Houston Center
10:57AM 29.2372 -90.5739 349° North 184 212 3,700 -300 Descending Houston Center
10:57AM 29.2381 -90.5728 49° Northeast 150 173 3,700 -600 Level Houston Center
10:58AM 29.2747 -90.5703 North 168 193 3,200 -540 Descending Houston Center
10:58AM 29.2806 -90.5714 351° North 152 175 3,200 -240 Level Houston Center
10:59AM 29.3189 -90.5733 357° North 176 203 3,000 -240 Descending Houston Center
10:59AM 29.3325 -90.5711 North 157 181 3,000  Level Houston Center
11:00AM 29.3628 -90.5717 359° North 164 189 3,000 -120 Level Houston Center
11:00AM 29.3761 -90.5708 North 158 182 2,900 -480 Descending Houston Center
11:01AM 29.4128 -90.5722 358° North 152 175 2,500 -540 Descending Houston Center
11:01AM 29.4181 -90.5706 15° North 152 175 2,400 -600 Descending Houston Center
11:02AM 29.4461 -90.5711 359° North 139 160 2,000 -420 Descending Houston Center
11:02AM 29.4553 -90.5697 North 120 138 2,000  Level Houston Center
11:03AM 29.4817 -90.5697 360° North 119 137 2,000  Level Houston Center
11:03AM 29.4892 -90.5700 358° North 124 143 2,000 -120 Level Houston Center
11:04AM 29.5131 -90.5733 353° North 114 131 1,900 -240 Descending Houston Center
11:04AM 29.5175 -90.5792 311° West 111 128 1,800 -840 Descending Houston Center
11:05AM 29.5328 -90.6061 303° West 110 127 1,000 -1,020 Descending Houston Center
11:05AM 29.5392 -90.6150 310° West 119 137 800 -180 Descending Houston Center
11:06AM 29.5550 -90.6422 304° West 97 112 800 -240 Level Houston Center
11:07AM 29.5703 -90.6656 307° West 71 82 400 -360 Descending Houston Center
11:08AM 29.5786 -90.6669 352° North 25 29 100 -300 Descending Houston Center
11:10AM 29.5665 -90.6604 270° West  Level Estimated
11:17AM 29.5665 -90.6604 270° West  Level Estimated
11:18AM 29.5665 -90.6604 270° West  Level Estimated
11:19AM 29.5665 -90.6604 270° West  Level Estimated
11:20AM 29.5665 -90.6604 270° West  Level Estimated
11:21AM 29.5665 -90.6604 270° West  Level Estimated
11:22AM 29.5665 -90.6604 270° West  Level Estimated
11:23AM 29.5665 -90.6604 270° West  Level Estimated
11:24AM 29.5665 -90.6604 270° West  Level Estimated
11:25AM 29.5665 -90.6604 270° West  Level Estimated
11:26AM 29.5665 -90.6604 270° West  Level Estimated
11:27AM 29.5665 -90.6604 270° West  Level Estimated
11:28AM 29.5665 -90.6604 270° West  Level Estimated